Time;durP1;ratioP1;P1;durP2;ratioP2;P2;SDS_P1;SDS_P2;PMS_P1;PMS_P2;Temp;Humidity;BMP_temperature;BMP_pressure;BME280_temperature;BME280_humidity;BME280_pressure;Samples;Min_cycle;Max_cycle;Signal;HPM_P1;HPM_P2
2021/06/15 00:01:10;;;;;;;0.00;0.00;;;;;;;22.33;55.27;102115.44;5096290;28;20043;-86
2021/06/15 00:03:36;;;;;;;0.10;0.10;;;;;;;22.37;54.75;102108.03;5095706;28;20043;-86
2021/06/15 00:06:03;;;;;;;0.05;0.05;;;;;;;22.35;55.61;102112.66;5096800;28;20378;-86
2021/06/15 00:08:29;;;;;;;0.00;0.00;;;;;;;22.33;54.94;102112.75;5095858;28;20024;-86
2021/06/15 00:10:56;;;;;;;0.05;0.05;;;;;;;22.15;56.84;102122.59;5096155;28;20375;-87
2021/06/15 00:13:22;;;;;;;0.10;0.10;;;;;;;22.21;55.97;102118.75;5095481;28;20433;-86
2021/06/15 00:15:50;;;;;;;0.00;0.00;;;;;;;22.20;56.48;102107.06;5096248;28;20026;-86
2021/06/15 00:18:19;;;;;;;0.20;0.20;;;;;;;22.18;56.02;102114.38;5095619;28;20024;-86
2021/06/15 00:20:48;;;;;;;0.00;0.00;;;;;;;22.18;55.95;102117.06;5096039;28;20034;-86
2021/06/15 00:23:14;;;;;;;0.13;0.13;;;;;;;22.17;56.23;102117.13;5095307;28;20471;-86
2021/06/15 00:25:41;;;;;;;0.00;0.00;;;;;;;22.12;56.17;102125.47;5094996;28;20046;-86
2021/06/15 00:28:08;;;;;;;0.20;0.20;;;;;;;22.09;55.83;102125.59;5095227;28;20483;-86
2021/06/15 00:30:34;;;;;;;0.17;0.17;;;;;;;22.09;56.61;102115.69;5095374;28;20032;-86
2021/06/15 00:33:01;;;;;;;0.00;0.00;;;;;;;21.99;57.15;102125.16;5083152;28;20596;-86
2021/06/15 00:35:28;;;;;;;0.17;0.17;;;;;;;21.94;57.42;102117.31;5095851;28;20027;-86
2021/06/15 00:37:54;;;;;;;0.00;0.00;;;;;;;21.97;56.89;102119.84;5095005;28;20120;-86
2021/06/15 00:40:22;;;;;;;0.00;0.00;;;;;;;21.93;57.69;102126.34;5095724;28;20063;-86
2021/06/15 00:42:50;;;;;;;0.22;0.22;;;;;;;21.93;57.34;102129.03;5093165;28;20032;-86
2021/06/15 00:45:20;;;;;;;0.20;0.20;;;;;;;21.85;57.56;102123.13;5095079;28;20027;-87
2021/06/15 00:47:48;;;;;;;0.00;0.00;;;;;;;21.89;57.12;102124.72;5073445;28;20028;-86
2021/06/15 00:50:15;;;;;;;0.03;0.03;;;;;;;21.95;56.81;102129.81;5086063;28;20111;-86
2021/06/15 00:52:43;;;;;;;0.22;0.22;;;;;;;21.92;57.12;102124.59;5095189;28;20188;-86
2021/06/15 00:55:09;;;;;;;0.10;0.10;;;;;;;21.94;57.18;102128.09;5095124;28;20097;-86
2021/06/15 00:57:36;;;;;;;0.00;0.00;;;;;;;21.96;57.66;102125.31;5094738;28;20038;-86
2021/06/15 01:00:06;;;;;;;0.10;0.10;;;;;;;22.07;56.67;102130.19;5094584;28;20020;-86
2021/06/15 01:02:37;;;;;;;0.00;0.00;;;;;;;22.05;56.63;102134.81;5094676;28;20032;-86
2021/06/15 01:05:06;;;;;;;1.10;0.65;;;;;;;21.94;57.42;102133.50;5094283;28;20035;-86
2021/06/15 01:13:35;;;;;;;0.00;0.00;;;;;;;22.10;57.03;102138.16;5089557;27;20167;-86
2021/06/15 01:18:50;;;;;;;0.00;0.00;;;;;;;22.09;56.42;102126.50;5126945;27;20133;-86
2021/06/15 01:21:18;;;;;;;0.00;0.00;;;;;;;22.05;56.95;102130.25;5111377;28;20035;-84
2021/06/15 01:27:14;;;;;;;0.00;0.00;;;;;;;22.19;56.51;102126.03;5081779;27;20620;-86
2021/06/15 01:29:42;;;;;;;0.40;0.40;;;;;;;22.13;56.46;102132.59;5070588;28;20112;-86
2021/06/15 01:32:15;;;;;;;0.00;0.00;;;;;;;22.17;56.32;102138.72;5080883;28;20433;-86
2021/06/15 01:34:43;;;;;;;0.00;0.00;;;;;;;22.14;56.81;102148.72;5076129;28;20110;-86
2021/06/15 01:37:16;;;;;;;0.00;0.00;;;;;;;22.21;56.24;102152.00;5087940;28;20029;-86
2021/06/15 01:42:35;;;;;;;0.00;0.00;;;;;;;22.16;56.89;102153.16;5102742;27;20158;-85
2021/06/15 01:45:12;;;;;;;0.00;0.00;;;;;;;22.19;56.21;102153.88;5060579;28;20500;-86
2021/06/15 01:47:45;;;;;;;0.00;0.00;;;;;;;22.16;56.45;102164.84;5060443;28;20059;-87
2021/06/15 01:50:14;;;;;;;0.00;0.00;;;;;;;22.21;55.92;102153.84;5060761;28;20033;-86
2021/06/15 01:52:42;;;;;;;0.65;0.65;;;;;;;22.16;56.08;102158.56;5064751;28;20029;-86
2021/06/15 01:55:09;;;;;;;0.20;0.20;;;;;;;22.16;56.22;102162.16;5054125;28;20488;-86
2021/06/15 01:57:36;;;;;;;0.00;0.00;;;;;;;22.12;56.23;102169.50;5064261;28;20035;-86
2021/06/15 02:00:10;;;;;;;0.00;0.00;;;;;;;22.19;55.66;102167.38;5059684;28;20036;-86
2021/06/15 02:02:38;;;;;;;0.30;0.30;;;;;;;22.16;55.82;102163.94;5056689;28;20380;-86
2021/06/15 02:05:08;;;;;;;0.10;0.10;;;;;;;22.19;55.55;102158.44;5067243;28;20384;-86
2021/06/15 02:07:40;;;;;;;0.00;0.00;;;;;;;22.21;55.68;102152.00;5053622;28;20052;-86
2021/06/15 02:10:11;;;;;;;0.00;0.00;;;;;;;22.05;56.32;102156.41;5057224;28;20103;-86
2021/06/15 02:12:41;;;;;;;0.00;0.00;;;;;;;22.14;55.29;102151.44;5042838;28;20026;-86
2021/06/15 02:15:10;;;;;;;0.00;0.00;;;;;;;22.05;55.69;102151.00;5030407;28;20029;-86
2021/06/15 02:17:42;;;;;;;0.00;0.00;;;;;;;22.06;55.94;102150.06;5041247;28;20075;-87
2021/06/15 02:20:12;;;;;;;0.00;0.00;;;;;;;22.02;56.08;102162.81;5060280;28;20083;-86
2021/06/15 02:22:45;;;;;;;0.00;0.00;;;;;;;22.09;55.32;102160.69;5052191;28;20033;-86
2021/06/15 02:25:12;;;;;;;0.00;0.00;;;;;;;22.03;55.43;102158.28;5067085;28;20053;-86
2021/06/15 02:27:39;;;;;;;0.00;0.00;;;;;;;22.10;55.02;102157.91;5064267;28;20017;-86
2021/06/15 02:30:07;;;;;;;0.00;0.00;;;;;;;22.05;55.21;102167.19;5056952;28;20025;-86
2021/06/15 02:32:35;;;;;;;0.10;0.10;;;;;;;22.04;55.16;102168.13;5041512;28;20381;-86
2021/06/15 02:35:07;;;;;;;0.00;0.00;;;;;;;22.09;55.01;102163.38;5063875;28;20029;-86
2021/06/15 02:37:40;;;;;;;0.00;0.00;;;;;;;22.09;55.03;102161.59;5054591;28;20068;-86
2021/06/15 02:40:07;;;;;;;0.17;0.17;;;;;;;22.07;54.97;102160.78;5060255;28;20108;-86
2021/06/15 02:42:40;;;;;;;0.47;0.32;;;;;;;22.12;54.98;102155.16;5048221;28;20480;-86
2021/06/15 02:45:08;;;;;;;0.00;0.00;;;;;;;22.16;54.86;102158.56;5066018;28;20032;-86
2021/06/15 02:47:36;;;;;;;0.00;0.00;;;;;;;22.16;54.74;102166.66;5054404;28;20025;-86
2021/06/15 02:50:06;;;;;;;0.03;0.03;;;;;;;22.20;54.85;102154.78;5059852;28;20022;-86
2021/06/15 02:52:44;;;;;;;0.10;0.10;;;;;;;22.23;54.74;102150.13;5034905;28;20477;-86
2021/06/15 02:55:23;;;;;;;0.00;0.00;;;;;;;22.27;54.13;102154.41;5051369;28;20119;-86
2021/06/15 02:57:50;;;;;;;0.30;0.30;;;;;;;22.23;54.33;102155.50;5043437;28;20093;-86
2021/06/15 03:00:17;;;;;;;0.00;0.00;;;;;;;22.23;54.77;102155.50;5045452;28;20025;-86
2021/06/15 03:02:43;;;;;;;0.10;0.10;;;;;;;22.14;54.63;102155.94;5050310;28;20040;-86
2021/06/15 03:05:17;;;;;;;0.00;0.00;;;;;;;22.24;54.57;102162.66;5039730;28;20108;-86
2021/06/15 03:07:45;;;;;;;0.00;0.00;;;;;;;22.24;54.18;102162.66;5050032;28;20406;-86
2021/06/15 03:10:14;;;;;;;0.10;0.10;;;;;;;22.27;53.74;102165.19;5046433;28;20033;-86
2021/06/15 03:15:59;;;;;;;0.00;0.00;;;;;;;22.20;53.96;102168.28;5123955;27;20379;-86
2021/06/15 03:18:30;;;;;;;0.00;0.00;;;;;;;22.23;53.41;102160.91;5090611;28;20102;-86
2021/06/15 03:21:01;;;;;;;0.03;0.03;;;;;;;22.24;53.38;102178.88;5090679;28;20028;-85
2021/06/15 03:26:20;;;;;;;0.08;0.08;;;;;;;22.12;51.80;102187.53;5099394;27;20162;-86
2021/06/15 03:28:51;;;;;;;0.22;0.22;;;;;;;22.10;52.30;102187.59;5075471;28;20025;-85
2021/06/15 03:31:19;;;;;;;0.00;0.00;;;;;;;22.05;52.51;102191.47;5080452;28;20403;-86
2021/06/15 03:33:50;;;;;;;0.10;0.10;;;;;;;22.07;52.50;102184.16;5077017;28;20056;-86
2021/06/15 03:36:18;;;;;;;0.00;0.00;;;;;;;22.05;52.32;102186.09;5079362;28;20124;-86
2021/06/15 03:38:47;;;;;;;0.00;0.00;;;;;;;22.03;52.33;102169.06;5074685;28;20406;-86
2021/06/15 03:41:16;;;;;;;0.00;0.00;;;;;;;22.02;52.06;102172.72;5078623;28;20506;-86
2021/06/15 03:43:49;;;;;;;0.00;0.00;;;;;;;22.04;52.22;102179.78;5084392;28;20036;-86
2021/06/15 03:46:18;;;;;;;0.00;0.00;;;;;;;22.02;52.47;102180.81;5081278;28;20027;-86
2021/06/15 03:48:47;;;;;;;0.00;0.00;;;;;;;22.05;52.29;102177.97;5075192;28;20029;-86
2021/06/15 03:51:22;;;;;;;0.00;0.00;;;;;;;22.00;52.49;102180.03;5086993;28;20469;-87
2021/06/15 03:53:48;;;;;;;0.00;0.00;;;;;;;21.90;52.62;102183.13;5077156;28;20104;-86
2021/06/15 03:56:16;;;;;;;0.08;0.08;;;;;;;21.90;52.98;102175.03;5079543;28;20379;-86
2021/06/15 03:58:44;;;;;;;0.00;0.00;;;;;;;21.85;52.48;102187.00;5084628;28;20078;-86
2021/06/15 04:01:13;;;;;;;0.10;0.10;;;;;;;21.87;52.35;102190.50;5071495;28;20025;-86
2021/06/15 04:03:41;;;;;;;0.00;0.00;;;;;;;21.81;52.70;102192.53;5075638;28;20028;-86
2021/06/15 04:06:09;;;;;;;0.00;0.00;;;;;;;21.83;52.97;102208.66;5080411;28;20032;-86
2021/06/15 04:08:39;;;;;;;0.00;0.00;;;;;;;21.85;53.16;102214.84;5083396;28;20050;-86
2021/06/15 04:11:07;;;;;;;0.00;0.00;;;;;;;21.85;52.77;102214.00;5073668;28;20380;-86
2021/06/15 04:13:34;;;;;;;0.00;0.00;;;;;;;21.80;52.58;102219.59;5084839;28;20083;-86
2021/06/15 04:16:02;;;;;;;0.00;0.00;;;;;;;21.77;52.78;102220.63;5079074;28;20070;-86
2021/06/15 04:18:34;;;;;;;0.00;0.00;;;;;;;21.68;52.71;102221.00;5076762;28;20029;-86
2021/06/15 04:21:04;;;;;;;0.07;0.07;;;;;;;21.72;52.61;102216.34;5086166;28;20083;-86
2021/06/15 04:23:41;;;;;;;0.10;0.10;;;;;;;21.72;52.72;102219.94;5072859;28;20031;-86
2021/06/15 04:26:08;;;;;;;0.10;0.10;;;;;;;21.71;53.07;102222.69;5084735;28;20082;-86
2021/06/15 04:28:35;;;;;;;0.22;0.22;;;;;;;21.70;53.12;102226.38;5076548;28;20040;-86
2021/06/15 04:31:01;;;;;;;0.00;0.00;;;;;;;21.76;53.42;102228.78;5086117;28;20046;-85
2021/06/15 04:33:29;;;;;;;0.00;0.00;;;;;;;21.81;53.41;102218.66;5073620;28;20096;-86
2021/06/15 04:36:05;;;;;;;0.00;0.00;;;;;;;21.88;52.99;102220.13;5077787;28;20032;-86
2021/06/15 04:38:43;;;;;;;0.10;0.10;;;;;;;21.93;52.65;102223.50;5068898;28;20036;-86
2021/06/15 04:41:16;;;;;;;0.00;0.00;;;;;;;22.00;52.20;102217.81;5056337;28;20376;-86
2021/06/15 04:43:54;;;;;;;0.00;0.00;;;;;;;22.05;52.39;102221.16;5062490;28;20047;-86
2021/06/15 04:49:26;;;;;;;0.00;0.00;;;;;;;21.96;52.41;102217.94;5124119;27;20132;-86
2021/06/15 04:51:55;;;;;;;0.00;0.00;;;;;;;21.93;52.00;102218.09;5120698;28;20032;-87
2021/06/15 04:54:27;;;;;;;0.00;0.00;;;;;;;21.95;52.69;102221.56;5118432;28;20489;-86
2021/06/15 04:56:55;;;;;;;0.00;0.00;;;;;;;22.01;52.38;102230.31;5111409;28;20043;-86
2021/06/15 04:59:22;;;;;;;0.00;0.00;;;;;;;21.95;52.25;102229.66;5110682;28;20110;-86
2021/06/15 05:01:49;;;;;;;0.00;0.00;;;;;;;22.05;52.24;102223.88;5111068;28;20081;-86
2021/06/15 05:04:16;;;;;;;0.00;0.00;;;;;;;22.08;52.22;102231.81;5110789;28;20461;-86
2021/06/15 05:06:45;;;;;;;0.00;0.00;;;;;;;22.11;52.34;102239.78;5111080;28;20032;-85
2021/06/15 05:09:15;;;;;;;0.00;0.00;;;;;;;22.12;52.64;102245.09;5110463;28;20482;-86
2021/06/15 05:11:43;;;;;;;0.00;0.00;;;;;;;22.09;52.76;102239.84;5110728;28;20114;-84
2021/06/15 05:14:12;;;;;;;0.00;0.00;;;;;;;22.13;52.69;102241.44;5110249;28;20432;-86
2021/06/15 05:16:40;;;;;;;0.20;0.20;;;;;;;22.15;52.88;102249.47;5109639;28;20032;-87
2021/06/15 05:19:06;;;;;;;0.57;0.43;;;;;;;22.14;53.06;102250.41;5108617;28;20069;-86
2021/06/15 05:21:52;;;;;;;0.20;0.20;;;;;;;22.19;52.98;102251.06;5109685;28;20499;-86
2021/06/15 05:24:31;;;;;;;0.00;0.00;;;;;;;22.27;52.65;102253.44;5108930;28;20444;-86
2021/06/15 05:26:58;;;;;;;0.00;0.00;;;;;;;22.23;52.89;102246.41;5105245;28;20028;-85
2021/06/15 05:29:25;;;;;;;0.00;0.00;;;;;;;22.24;52.95;102246.34;5103110;28;20038;-87
2021/06/15 05:31:51;;;;;;;0.08;0.08;;;;;;;22.24;52.87;102243.66;5094411;28;20040;-85
2021/06/15 05:34:17;;;;;;;0.10;0.10;;;;;;;22.29;52.78;102241.63;5108126;28;20494;-86
2021/06/15 05:36:45;;;;;;;0.10;0.10;;;;;;;22.41;52.31;102244.69;5108807;28;20040;-86
2021/06/15 05:39:11;;;;;;;0.20;0.20;;;;;;;22.45;52.66;102251.69;5108372;28;20032;-85
2021/06/15 05:41:38;;;;;;;0.00;0.00;;;;;;;22.54;52.08;102251.28;5106780;28;20024;-85
2021/06/15 05:44:05;;;;;;;0.00;0.00;;;;;;;22.66;51.83;102259.72;5108538;28;20390;-85
2021/06/15 05:46:31;;;;;;;0.00;0.00;;;;;;;22.75;51.08;102259.25;5106043;28;20060;-86
2021/06/15 05:49:01;;;;;;;0.00;0.00;;;;;;;22.80;50.93;102261.75;5107504;28;20033;-85
2021/06/15 05:51:27;;;;;;;0.00;0.00;;;;;;;22.82;50.42;102258.00;5106662;28;20028;-84
2021/06/15 05:53:54;;;;;;;0.10;0.10;;;;;;;22.89;50.36;102258.56;5108751;28;20032;-86
2021/06/15 05:56:20;;;;;;;0.13;0.13;;;;;;;22.89;49.66;102266.69;5109332;28;20360;-85
2021/06/15 05:58:46;;;;;;;0.00;0.00;;;;;;;22.87;49.62;102269.47;5100838;28;20024;-85
2021/06/15 06:01:12;;;;;;;0.10;0.10;;;;;;;22.86;49.08;102275.81;5091941;28;20467;-85
2021/06/15 06:03:44;;;;;;;0.00;0.00;;;;;;;22.87;49.53;102284.81;5089723;28;20073;-85
2021/06/15 06:08:59;;;;;;;0.20;0.20;;;;;;;22.79;49.05;102282.47;5081662;28;20095;-86
2021/06/15 06:11:25;;;;;;;0.08;0.08;;;;;;;22.72;49.08;102278.34;5080078;28;20055;-84
2021/06/15 06:13:53;;;;;;;0.00;0.00;;;;;;;22.88;49.76;102281.13;5084316;28;20111;-84
2021/06/15 06:16:20;;;;;;;0.10;0.10;;;;;;;22.98;48.87;102286.97;5083612;28;20038;-85
2021/06/15 06:18:46;;;;;;;0.10;0.10;;;;;;;22.98;48.73;102293.28;5084499;28;20085;-85
2021/06/15 06:21:13;;;;;;;0.00;0.00;;;;;;;23.06;48.16;102290.19;5085812;28;20028;-83
2021/06/15 06:23:40;;;;;;;0.30;0.30;;;;;;;23.07;48.60;102298.22;5078607;28;20059;-84
2021/06/15 06:26:06;;;;;;;0.17;0.17;;;;;;;23.08;48.50;102304.50;5079434;28;20135;-85
2021/06/15 06:28:32;;;;;;;0.00;0.00;;;;;;;23.12;48.41;102316.91;5084760;28;20043;-84
2021/06/15 06:30:59;;;;;;;0.20;0.20;;;;;;;22.96;47.73;102310.53;5082837;28;20040;-85
2021/06/15 06:33:25;;;;;;;0.10;0.10;;;;;;;23.01;47.90;102298.50;5083776;28;20024;-84
2021/06/15 06:35:51;;;;;;;0.00;0.00;;;;;;;23.06;48.24;102312.66;5086121;28;20040;-84
2021/06/15 06:38:17;;;;;;;0.00;0.00;;;;;;;23.10;47.65;102308.88;5085482;28;20474;-84
2021/06/15 06:40:43;;;;;;;0.25;0.25;;;;;;;23.14;48.03;102303.31;5085681;28;20090;-83
2021/06/15 06:43:10;;;;;;;0.05;0.05;;;;;;;23.14;47.59;102309.59;5084712;28;20093;-84
2021/06/15 06:45:36;;;;;;;0.00;0.00;;;;;;;23.32;47.01;102312.38;5084263;28;20016;-84
2021/06/15 06:48:04;;;;;;;0.08;0.08;;;;;;;23.34;47.23;102329.38;5085453;28;20032;-84
2021/06/15 06:50:31;;;;;;;0.00;0.00;;;;;;;23.36;47.17;102324.78;5083907;28;20032;-82
2021/06/15 06:52:57;;;;;;;0.00;0.00;;;;;;;23.41;46.66;102322.69;5083696;28;20039;-83
2021/06/15 06:55:23;;;;;;;0.08;0.08;;;;;;;23.47;45.96;102327.81;5085865;28;20471;-83
2021/06/15 06:57:49;;;;;;;0.30;0.30;;;;;;;23.57;46.38;102326.38;5084221;28;20052;-84
2021/06/15 07:00:16;;;;;;;0.00;0.00;;;;;;;23.61;46.45;102323.50;5084043;28;20379;-83
2021/06/15 07:02:42;;;;;;;0.00;0.00;;;;;;;23.69;44.72;102326.69;5085441;28;20483;-83
2021/06/15 07:05:11;;;;;;;0.00;0.00;;;;;;;23.81;45.69;102326.03;5084339;28;20021;-84
2021/06/15 07:07:37;;;;;;;0.00;0.00;;;;;;;23.89;45.57;102321.09;5083431;28;20132;-83
2021/06/15 07:10:03;;;;;;;0.05;0.05;;;;;;;23.94;45.58;102318.19;5084864;28;20356;-83
2021/06/15 07:12:29;;;;;;;0.00;0.00;;;;;;;23.95;45.05;102319.06;5083805;28;20387;-82
2021/06/15 07:14:55;;;;;;;0.00;0.00;;;;;;;24.09;45.28;102319.22;5081025;28;20043;-83
2021/06/15 07:17:22;;;;;;;0.00;0.00;;;;;;;24.13;45.35;102326.19;5075155;28;20453;-83
2021/06/15 07:19:48;;;;;;;0.00;0.00;;;;;;;23.92;44.31;102321.94;5074621;28;20051;-82
2021/06/15 07:22:14;;;;;;;0.43;0.43;;;;;;;24.05;45.29;102318.50;5075079;28;20028;-84
2021/06/15 07:24:40;;;;;;;0.00;0.00;;;;;;;24.11;45.19;102321.81;5082493;28;20031;-85
2021/06/15 07:27:06;;;;;;;0.00;0.00;;;;;;;24.09;44.82;102327.31;5095222;28;20474;-88
2021/06/15 07:29:32;;;;;;;0.00;0.00;;;;;;;24.10;45.28;102326.38;5094540;28;20054;-87
2021/06/15 07:31:58;;;;;;;0.00;0.00;;;;;;;24.01;45.00;102326.84;5095301;28;20032;-86
2021/06/15 07:34:25;;;;;;;0.00;0.00;;;;;;;24.12;44.57;102327.16;5094792;28;20028;-87
2021/06/15 07:36:51;;;;;;;0.00;0.00;;;;;;;23.97;44.81;102336.97;5082098;28;20414;-87
2021/06/15 07:39:17;;;;;;;0.10;0.10;;;;;;;23.97;44.97;102336.09;5082784;28;20035;-86
2021/06/15 07:41:44;;;;;;;0.60;0.55;;;;;;;23.90;44.37;102330.09;5092096;28;20081;-87
2021/06/15 07:44:10;;;;;;;0.05;0.05;;;;;;;23.81;44.47;102319.75;5087476;28;20119;-84
2021/06/15 07:46:36;;;;;;;0.00;0.00;;;;;;;23.75;44.89;102331.78;5087442;28;20032;-86
2021/06/15 07:49:04;;;;;;;0.00;0.00;;;;;;;23.79;44.40;102325.25;5081112;28;20388;-85
2021/06/15 07:51:30;;;;;;;0.00;0.00;;;;;;;23.80;45.05;102334.25;5083978;28;20028;-85
2021/06/15 07:53:56;;;;;;;0.03;0.03;;;;;;;23.85;44.76;102329.47;5089711;28;20028;-83
2021/06/15 07:56:24;;;;;;;0.10;0.10;;;;;;;23.82;45.02;102333.22;5085985;28;20518;-86
2021/06/15 07:58:51;;;;;;;0.03;0.03;;;;;;;23.87;45.28;102331.13;5083468;28;20035;-84
2021/06/15 08:01:17;;;;;;;0.32;0.32;;;;;;;23.98;44.67;102332.44;5085622;28;20028;-86
2021/06/15 08:03:44;;;;;;;0.00;0.00;;;;;;;24.06;45.10;102325.66;5088040;28;20057;-83
2021/06/15 08:06:10;;;;;;;0.00;0.00;;;;;;;24.00;45.07;102325.09;5079751;28;20044;-83
2021/06/15 08:08:37;;;;;;;0.00;0.00;;;;;;;24.10;44.53;102328.19;5083844;28;20449;-85
2021/06/15 08:11:03;;;;;;;0.00;0.00;;;;;;;23.89;44.97;102329.22;5083192;28;20103;-85
2021/06/15 08:13:30;;;;;;;0.68;0.68;;;;;;;24.03;44.96;102324.94;5082146;28;20028;-87
2021/06/15 08:15:56;;;;;;;0.00;0.00;;;;;;;24.14;44.89;102324.34;5079165;28;20025;-86
2021/06/15 08:18:24;;;;;;;0.00;0.00;;;;;;;24.16;44.77;102320.63;5073971;28;20044;-84
2021/06/15 08:20:52;;;;;;;0.00;0.00;;;;;;;24.18;45.29;102307.00;5074426;28;20029;-86
2021/06/15 08:23:18;;;;;;;0.00;0.00;;;;;;;24.20;45.93;102308.66;5078956;28;20517;-84
2021/06/15 08:25:44;;;;;;;0.00;0.00;;;;;;;24.40;44.41;102317.53;5081699;28;20028;-87
2021/06/15 08:28:13;;;;;;;0.85;0.85;;;;;;;24.45;44.78;102320.84;5082395;28;20168;-84
2021/06/15 08:30:39;;;;;;;0.15;0.15;;;;;;;24.48;44.55;102326.09;5080661;28;20047;-81
2021/06/15 08:33:06;;;;;;;0.00;0.00;;;;;;;24.53;44.26;102324.00;5073797;28;20058;-85
2021/06/15 08:35:33;;;;;;;0.10;0.10;;;;;;;24.58;44.12;102322.88;5074315;28;20051;-85
2021/06/15 08:38:00;;;;;;;0.00;0.00;;;;;;;24.49;44.16;102324.28;5073668;28;20032;-86
2021/06/15 08:40:27;;;;;;;0.00;0.00;;;;;;;24.44;45.33;102319.09;5074034;28;20028;-85
2021/06/15 08:42:53;;;;;;;0.10;0.10;;;;;;;24.52;44.28;102316.84;5073325;28;20077;-86
2021/06/15 08:45:19;;;;;;;0.00;0.00;;;;;;;24.44;45.17;102315.53;5074107;28;20021;-86
2021/06/15 08:47:48;;;;;;;0.00;0.00;;;;;;;24.57;44.92;102307.56;5073305;28;20051;-86
2021/06/15 08:50:19;;;;;;;0.00;0.00;;;;;;;24.62;44.43;102300.06;5073921;28;20040;-87
2021/06/15 08:52:47;;;;;;;0.00;0.00;;;;;;;24.67;44.10;102298.00;5073399;28;20048;-87
2021/06/15 08:55:14;;;;;;;0.00;0.00;;;;;;;24.75;44.06;102300.25;5073703;28;20035;-86
2021/06/15 08:57:42;;;;;;;0.00;0.00;;;;;;;24.78;43.65;102294.69;5074135;28;20499;-85
2021/06/15 09:00:10;;;;;;;0.00;0.00;;;;;;;24.83;43.64;102284.44;5075438;28;20081;-83
2021/06/15 09:02:45;;;;;;;0.08;0.08;;;;;;;24.88;43.72;102282.34;5081936;28;20106;-85
2021/06/15 09:05:30;;;;;;;0.00;0.00;;;;;;;25.12;43.50;102293.59;5084508;28;20024;-83
2021/06/15 09:10:42;;;;;;;0.00;0.00;;;;;;;25.28;42.36;102298.97;5067619;27;1089914;-85
2021/06/15 09:13:37;;;;;;;0.00;0.00;;;;;;;25.32;41.22;102292.41;5111266;28;20042;-84
2021/06/15 09:19:00;;;;;;;0.10;0.10;;;;;;;25.43;42.73;102291.78;5061280;27;20166;-84
2021/06/15 09:27:05;;;;;;;0.25;0.25;;;;;;;25.82;41.92;102297.56;5075906;27;20174;-85
2021/06/15 09:32:26;;;;;;;0.00;0.00;;;;;;;25.79;40.98;102295.94;5082588;27;20343;-83
2021/06/15 09:34:58;;;;;;;0.00;0.00;;;;;;;25.77;41.59;102294.28;5111017;28;20093;-82
2021/06/15 09:37:42;;;;;;;;;;;;;;;25.77;40.98;102300.59;5110968;28;20032;-83
2021/06/15 09:45:48;;;;;;;0.00;0.00;;;;;;;25.68;41.39;102299.31;5072868;28;20531;-81
2021/06/15 09:48:35;;;;;;;0.10;0.10;;;;;;;25.84;40.87;102295.66;5059742;28;20032;-83
2021/06/15 09:51:09;;;;;;;0.80;0.38;;;;;;;25.79;41.10;102293.22;5030289;28;20469;-85
2021/06/15 09:53:43;;;;;;;0.00;0.00;;;;;;;25.76;41.52;102292.56;5033203;28;20056;-84
2021/06/15 09:56:12;;;;;;;0.45;0.45;;;;;;;25.70;41.44;102293.78;5043410;28;20109;-84
2021/06/15 09:58:55;;;;;;;0.00;0.00;;;;;;;25.75;42.81;102296.22;5040931;28;20052;-85
2021/06/15 10:01:39;;;;;;;0.10;0.10;;;;;;;25.87;40.33;102284.63;5054045;28;20033;-84
2021/06/15 10:04:25;;;;;;;0.77;0.50;;;;;;;25.93;40.99;102288.78;5056686;28;20478;-84
2021/06/15 10:06:54;;;;;;;0.13;0.13;;;;;;;26.09;40.89;102288.72;5056016;28;20036;-83
2021/06/15 10:09:36;;;;;;;0.30;0.30;;;;;;;26.29;39.60;102284.72;5051904;28;20020;-85
2021/06/15 10:12:04;;;;;;;;;;;;;;;26.12;39.56;102294.84;5056324;28;20088;-87
2021/06/15 10:14:30;;;;;;;0.10;0.10;;;;;;;26.23;40.38;102294.16;5049529;28;19924;-89
2021/06/15 10:16:58;;;;;;;0.00;0.00;;;;;;;26.12;40.53;102302.97;5049616;28;20470;-85
2021/06/15 10:19:25;;;;;;;0.00;0.00;;;;;;;26.28;40.43;102299.28;5051961;28;20468;-93
2021/06/15 10:21:54;;;;;;;0.30;0.30;;;;;;;26.35;40.77;102295.19;5039327;28;20037;-88
2021/06/15 10:24:23;;;;;;;0.00;0.00;;;;;;;26.46;40.91;102300.81;5038317;28;20048;-86
2021/06/15 10:26:51;;;;;;;0.10;0.10;;;;;;;26.58;40.26;102285.56;5036259;28;20025;-86
2021/06/15 10:29:17;;;;;;;0.43;0.43;;;;;;;26.52;40.30;102285.97;5030425;28;20448;-85
2021/06/15 10:31:47;;;;;;;0.00;0.00;;;;;;;26.58;40.86;102290.13;5030672;28;20087;-87
2021/06/15 10:34:13;;;;;;;0.00;0.00;;;;;;;26.54;40.73;102278.56;5030106;28;20033;-85
2021/06/15 10:39:39;;;;;;;0.00;0.00;;;;;;;26.73;40.30;102274.63;5089953;27;20160;-85
2021/06/15 10:42:16;;;;;;;0.00;0.00;;;;;;;26.57;38.61;102282.97;5091262;28;20031;-85
2021/06/15 10:44:43;;;;;;;0.38;0.38;;;;;;;26.47;39.64;102277.25;5091414;28;20029;-86
2021/06/15 10:47:13;;;;;;;0.10;0.10;;;;;;;26.64;38.81;102278.84;5084915;28;20032;-85
2021/06/15 10:50:00;;;;;;;0.00;0.00;;;;;;;26.79;38.61;102275.16;5070841;28;20067;-85
2021/06/15 10:52:47;;;;;;;0.10;0.10;;;;;;;26.86;39.50;102278.31;5069769;28;20120;-85
2021/06/15 10:55:41;;;;;;;0.00;0.00;;;;;;;27.00;40.02;102273.81;5071097;28;20039;-86
2021/06/15 10:58:07;;;;;;;0.15;0.15;;;;;;;26.84;39.73;102277.53;5070410;28;20365;-85
2021/06/15 11:00:44;;;;;;;0.10;0.10;;;;;;;27.12;38.80;102273.00;5071109;28;20079;-86
2021/06/15 11:05:59;;;;;;;0.10;0.10;;;;;;;26.50;39.30;102271.59;5144996;27;20167;-85
2021/06/15 11:08:29;;;;;;;0.00;0.00;;;;;;;26.83;40.17;102261.34;5111102;28;20024;-85
2021/06/15 11:13:55;;;;;;;0.32;0.32;;;;;;;27.27;37.67;102262.91;5089993;27;20160;-86
2021/06/15 11:21:54;;;;;;;6.35;0.43;;;;;;;27.39;37.91;102259.34;5090506;27;20160;-86
2021/06/15 11:27:33;;;;;;;0.35;0.35;;;;;;;27.42;37.08;102267.31;5083200;27;20168;-86
2021/06/15 11:30:19;;;;;;;0.10;0.10;;;;;;;27.66;37.15;102263.84;5071279;28;20060;-89
2021/06/15 11:33:04;;;;;;;0.30;0.30;;;;;;;27.75;36.37;102256.88;5070986;28;20025;-86
2021/06/15 11:35:38;;;;;;;0.00;0.00;;;;;;;27.84;36.84;102250.78;5071054;28;20032;-86
2021/06/15 11:38:12;;;;;;;0.00;0.00;;;;;;;27.97;37.23;102247.19;5070613;28;20483;-87
2021/06/15 11:40:40;;;;;;;0.00;0.00;;;;;;;27.94;36.76;102248.28;5071287;28;20476;-86
2021/06/15 11:45:51;;;;;;;0.00;0.00;;;;;;;28.12;36.63;102239.78;5127312;27;20132;-90
2021/06/15 11:48:31;;;;;;;0.00;0.00;;;;;;;28.03;36.09;102242.16;5111689;28;20040;-87
2021/06/15 11:51:00;;;;;;;0.00;0.00;;;;;;;28.09;36.10;102252.63;5111739;28;20031;-91
2021/06/15 11:53:28;;;;;;;0.32;0.32;;;;;;;28.09;35.47;102246.34;5111376;28;20059;-86
2021/06/15 11:55:57;;;;;;;0.00;0.00;;;;;;;27.90;36.14;102246.75;5111605;28;20110;-87
2021/06/15 12:01:10;;;;;;;0.10;0.10;;;;;;;28.14;35.21;102246.88;5128013;27;20135;-85
2021/06/15 12:03:42;;;;;;;0.10;0.10;;;;;;;28.28;36.86;102245.84;5111230;28;20487;-85
2021/06/15 12:06:10;;;;;;;1.45;1.17;;;;;;;28.42;36.21;102247.56;5112010;28;20101;-88
2021/06/15 12:08:39;;;;;;;0.22;0.22;;;;;;;28.64;35.31;102246.81;5111766;28;20471;-84
2021/06/15 12:11:09;;;;;;;0.15;0.15;;;;;;;28.77;35.06;102248.66;5111954;28;20028;-88
2021/06/15 12:13:37;;;;;;;0.00;0.00;;;;;;;28.79;33.65;102253.00;5111495;28;20362;-84
2021/06/15 12:18:50;;;;;;;0.10;0.10;;;;;;;28.41;34.28;102249.41;5070104;27;20510;-85
2021/06/15 12:24:04;;;;;;;0.10;0.10;;;;;;;28.38;35.01;102246.91;5127346;27;20211;-83
2021/06/15 12:29:12;;;;;;;1.20;0.90;;;;;;;28.35;36.01;102240.81;5090189;27;20166;-84
2021/06/15 12:31:41;;;;;;;0.00;0.00;;;;;;;28.33;34.89;102242.78;5091450;28;20498;-84
2021/06/15 12:34:11;;;;;;;0.45;0.45;;;;;;;28.51;34.32;102229.63;5091068;28;20065;-83
2021/06/15 12:36:41;;;;;;;1.17;0.80;;;;;;;28.56;34.00;102214.69;5090169;28;20471;-86
2021/06/15 12:44:36;;;;;;;0.00;0.00;;;;;;;28.81;33.77;102211.97;5089751;27;20159;-84
2021/06/15 12:47:12;;;;;;;0.32;0.32;;;;;;;28.95;32.04;102205.44;5086725;28;20040;-88
2021/06/15 12:49:48;;;;;;;0.00;0.00;;;;;;;28.86;34.55;102213.38;5069847;28;20122;-84
2021/06/15 12:52:15;;;;;;;0.65;0.65;;;;;;;28.98;34.38;102211.53;5069511;28;20040;-85
2021/06/15 12:54:43;;;;;;;0.00;0.00;;;;;;;29.10;33.65;102214.31;5070245;28;20114;-85
2021/06/15 13:00:04;;;;;;;0.00;0.00;;;;;;;29.38;33.26;102207.59;5082065;27;20649;-83
2021/06/15 13:02:30;;;;;;;0.00;0.00;;;;;;;29.10;33.08;102208.84;5068379;28;20116;-85